createdAt,value
2023-01-17T00:00:34.873Z,56.98
2023-01-17T00:01:39.157Z,57.14
2023-01-17T00:02:43.535Z,57.02
2023-01-17T00:03:48.045Z,57.18
2023-01-17T00:04:52.318Z,57.26
2023-01-17T00:05:56.543Z,57.16
2023-01-17T00:07:00.819Z,56.85
2023-01-17T00:08:05.054Z,57.05
2023-01-17T00:09:09.321Z,57.13
2023-01-17T00:10:13.550Z,57
2023-01-17T00:11:17.757Z,56.99
2023-01-17T00:12:22.072Z,57
2023-01-17T00:13:26.318Z,57.27
2023-01-17T00:14:30.566Z,57.26
2023-01-17T00:15:34.808Z,57.47
2023-01-17T00:16:39.053Z,57.45
2023-01-17T00:17:43.280Z,57.36
2023-01-17T00:18:47.474Z,57.69
2023-01-17T00:19:51.703Z,57.36
2023-01-17T00:20:55.991Z,57.61
2023-01-17T00:22:00.246Z,57.34
2023-01-17T00:23:04.492Z,57.47
2023-01-17T00:24:08.706Z,57.47
2023-01-17T00:25:12.918Z,57.47
2023-01-17T00:26:17.164Z,57.43
2023-01-17T00:27:21.439Z,57.74
2023-01-17T00:28:25.720Z,57.42
2023-01-17T00:29:29.969Z,57.92
2023-01-17T00:30:34.196Z,57.86
2023-01-17T00:31:38.624Z,57.99
2023-01-17T00:32:42.858Z,57.78
2023-01-17T00:33:47.101Z,58.07
2023-01-17T00:34:51.318Z,57.99
2023-01-17T00:35:55.574Z,57.63
2023-01-17T00:37:00.069Z,57.72
2023-01-17T00:38:04.318Z,57.61
2023-01-17T00:39:08.649Z,58.13
2023-01-17T00:40:12.855Z,58.05
2023-01-17T00:41:17.200Z,57.95
2023-01-17T00:42:21.493Z,57.92
2023-01-17T00:43:25.714Z,58.45
2023-01-17T00:44:29.955Z,58.33
2023-01-17T00:45:34.190Z,58.48
2023-01-17T00:46:38.850Z,58.06
2023-01-17T00:47:43.097Z,58.23
2023-01-17T00:48:47.322Z,58.11
2023-01-17T00:49:51.568Z,58.12
2023-01-17T00:50:55.804Z,57.92
2023-01-17T00:52:00.136Z,58.22
2023-01-17T00:53:04.336Z,58.56
2023-01-17T00:54:08.594Z,58.2
2023-01-17T00:55:12.833Z,58.06
2023-01-17T00:56:17.073Z,58.09
2023-01-17T00:57:21.308Z,58.05
2023-01-17T00:58:25.509Z,58.57
2023-01-17T00:59:29.728Z,58.5
2023-01-17T01:00:34.222Z,58.61
2023-01-17T01:01:39.257Z,58.17
2023-01-17T01:02:43.918Z,58.29
2023-01-17T01:03:48.221Z,58.17
2023-01-17T01:04:52.454Z,58.42
2023-01-17T01:05:56.728Z,58.35
2023-01-17T01:07:00.953Z,58.29
2023-01-17T01:08:05.199Z,58.27
2023-01-17T01:09:09.664Z,58.24
2023-01-17T01:10:13.935Z,58.52
2023-01-17T01:11:18.138Z,59.04
2023-01-17T01:12:22.442Z,58.62
2023-01-17T01:13:26.686Z,58.47
2023-01-17T01:14:30.892Z,58.73
2023-01-17T01:15:35.503Z,58.48
2023-01-17T01:16:40.071Z,59
2023-01-17T01:17:44.268Z,58.57
2023-01-17T01:18:48.464Z,58.57
2023-01-17T01:19:52.716Z,58.9
2023-01-17T01:20:57.982Z,58.93
2023-01-17T01:22:02.191Z,58.63
2023-01-17T01:23:06.449Z,58.95
2023-01-17T01:24:10.689Z,58.67
2023-01-17T01:25:14.948Z,58.71
2023-01-17T01:26:19.209Z,58.7
2023-01-17T01:27:23.428Z,58.8
2023-01-17T01:28:27.713Z,58.72
2023-01-17T01:29:31.962Z,58.81
2023-01-17T01:30:36.277Z,58.94
2023-01-17T01:31:40.724Z,58.7
2023-01-17T01:32:44.956Z,58.77
2023-01-17T01:33:49.159Z,58.87
2023-01-17T01:34:53.373Z,59.14
2023-01-17T01:35:57.631Z,58.97
2023-01-17T01:37:01.867Z,59.24
2023-01-17T01:38:06.138Z,59.38
2023-01-17T01:39:10.425Z,59.18
2023-01-17T01:40:14.645Z,59.33
2023-01-17T01:41:18.940Z,59.31
2023-01-17T01:42:23.155Z,58.98
2023-01-17T01:43:27.395Z,59.62
2023-01-17T01:44:31.663Z,59.69
2023-01-17T01:45:36.086Z,59.48
2023-01-17T01:46:40.418Z,59.84
2023-01-17T01:47:44.687Z,59.6
2023-01-17T01:48:48.909Z,59.77
2023-01-17T01:49:53.156Z,59.71
2023-01-17T01:50:57.476Z,59.92
2023-01-17T01:52:01.717Z,59.74
2023-01-17T01:53:05.977Z,59.54
2023-01-17T01:54:10.243Z,59.3
2023-01-17T01:55:14.550Z,59.85
2023-01-17T01:56:18.786Z,59.98
2023-01-17T01:57:23.017Z,59.89
2023-01-17T01:58:28.295Z,59.97
2023-01-17T01:59:32.541Z,60.13
2023-01-17T02:00:37.064Z,60.01
2023-01-17T02:01:41.955Z,60.15
2023-01-17T02:02:46.239Z,60.08
2023-01-17T02:03:50.596Z,60.04
2023-01-17T02:04:54.865Z,60.06
2023-01-17T02:05:59.126Z,60.21
2023-01-17T02:07:03.358Z,59.87
2023-01-17T02:08:07.568Z,59.5
2023-01-17T02:09:11.823Z,60.16
2023-01-17T02:10:16.052Z,60.23
2023-01-17T02:11:20.313Z,59.91
2023-01-17T02:12:24.559Z,59.69
2023-01-17T02:13:28.855Z,59.5
2023-01-17T02:14:33.068Z,60.22
2023-01-17T02:15:37.310Z,60.16
2023-01-17T02:16:41.745Z,60.26
2023-01-17T02:17:45.975Z,60.15
2023-01-17T02:18:50.223Z,60.35
2023-01-17T02:19:54.435Z,60.41
2023-01-17T02:20:58.653Z,60.25
2023-01-17T02:22:02.914Z,60.25
2023-01-17T02:23:07.163Z,60.43
2023-01-17T02:24:11.503Z,60.48
2023-01-17T02:25:15.736Z,60.48
2023-01-17T02:26:20.122Z,60.59
2023-01-17T02:27:24.336Z,59.99
2023-01-17T02:28:28.601Z,60.37
2023-01-17T02:29:32.887Z,60.29
2023-01-17T02:30:37.137Z,59.81
2023-01-17T02:31:41.603Z,60.39
2023-01-17T02:32:45.823Z,60.34
2023-01-17T02:33:50.083Z,60.28
2023-01-17T02:34:54.327Z,60.17
2023-01-17T02:35:58.938Z,60
2023-01-17T02:37:03.318Z,60.32
2023-01-17T02:38:07.563Z,60.39
2023-01-17T02:39:11.832Z,60.54
2023-01-17T02:40:16.111Z,60.27
2023-01-17T02:41:20.401Z,60.36
2023-01-17T02:42:24.607Z,60.69
2023-01-17T02:43:28.821Z,60.32
2023-01-17T02:44:33.044Z,60.66
2023-01-17T02:45:37.389Z,60.69
2023-01-17T02:46:41.734Z,60.62
2023-01-17T02:47:45.981Z,60.12
2023-01-17T02:48:50.206Z,59.97
2023-01-17T02:49:54.481Z,59.7
2023-01-17T02:50:58.699Z,60.25
2023-01-17T02:52:02.945Z,59.9
2023-01-17T02:53:07.156Z,60.15
2023-01-17T02:54:11.389Z,60.06
2023-01-17T02:55:15.663Z,60.06
2023-01-17T02:56:19.923Z,60.54
2023-01-17T02:57:24.181Z,60.68
2023-01-17T02:58:28.449Z,60.09
2023-01-17T02:59:32.690Z,60.51
2023-01-17T03:00:36.915Z,60.85
2023-01-17T03:01:41.570Z,60.22
2023-01-17T03:02:45.876Z,60.58
2023-01-17T03:03:50.185Z,60.81
2023-01-17T03:04:54.390Z,60.77
2023-01-17T03:05:58.647Z,60.12
2023-01-17T03:07:02.892Z,60.67
2023-01-17T03:08:07.167Z,60.08
2023-01-17T03:09:11.403Z,60.83
2023-01-17T03:10:15.628Z,60.48
2023-01-17T03:11:19.865Z,60.86
2023-01-17T03:12:24.065Z,60.65
2023-01-17T03:13:29.390Z,60.45
2023-01-17T03:14:33.630Z,60.77
2023-01-17T03:15:37.840Z,60.62
2023-01-17T03:16:42.218Z,60.33
2023-01-17T03:17:46.482Z,60.16
2023-01-17T03:18:50.707Z,60.69
2023-01-17T03:19:54.924Z,60.18
2023-01-17T03:20:59.202Z,60.93
2023-01-17T03:22:03.447Z,61.12
2023-01-17T03:23:07.663Z,61.07
2023-01-17T03:24:11.888Z,60.96
2023-01-17T03:25:16.111Z,61.08
2023-01-17T03:26:20.387Z,60.83
2023-01-17T03:27:24.625Z,60.09
2023-01-17T03:28:28.835Z,60.55
2023-01-17T03:29:33.053Z,60.59
2023-01-17T03:30:37.380Z,61.22
2023-01-17T03:31:41.666Z,61
2023-01-17T03:32:45.890Z,60.46
2023-01-17T03:33:52.399Z,61.05
2023-01-17T03:34:56.633Z,60.48
2023-01-17T03:36:00.844Z,61.22
2023-01-17T03:37:05.169Z,61.33
2023-01-17T03:38:09.416Z,60.73
2023-01-17T03:39:13.964Z,60.66
2023-01-17T03:40:18.187Z,61.23
2023-01-17T03:41:22.383Z,61.26
2023-01-17T03:42:26.660Z,60.97
2023-01-17T03:43:30.884Z,61.27
2023-01-17T03:44:35.083Z,60.89
2023-01-17T03:45:39.420Z,60.45
2023-01-17T03:46:43.678Z,60.69
2023-01-17T03:47:48.021Z,61.02
2023-01-17T03:48:52.271Z,61.13
2023-01-17T03:49:57.533Z,61.13
2023-01-17T03:51:01.884Z,60.69
2023-01-17T03:52:06.134Z,60.88
2023-01-17T03:53:10.367Z,61.47
2023-01-17T03:54:14.633Z,61.59
2023-01-17T03:55:18.860Z,61.67
2023-01-17T03:56:23.107Z,61.06
2023-01-17T03:57:27.305Z,60.97
2023-01-17T03:58:31.501Z,61.5
2023-01-17T03:59:35.731Z,61.62
2023-01-17T04:00:40.019Z,61.47
2023-01-17T04:01:44.589Z,61.77
2023-01-17T04:02:49.316Z,61.51
2023-01-17T04:03:53.523Z,61.39
2023-01-17T04:04:57.765Z,61.37
2023-01-17T04:06:02.045Z,61.77
2023-01-17T04:07:06.278Z,61.85
2023-01-17T04:08:10.560Z,61.46
2023-01-17T04:09:14.794Z,61.91
2023-01-17T04:10:19.016Z,61.77
2023-01-17T04:11:23.245Z,61.86
2023-01-17T04:12:27.484Z,61.14
2023-01-17T04:13:31.785Z,61.57
2023-01-17T04:14:36.075Z,61.83
2023-01-17T04:15:40.296Z,61.98
2023-01-17T04:16:44.722Z,61.6
2023-01-17T04:17:48.977Z,61.65
2023-01-17T04:18:53.222Z,61.64
2023-01-17T04:19:57.469Z,61.3
2023-01-17T04:21:01.736Z,61.72
2023-01-17T04:22:05.985Z,61.81
2023-01-17T04:23:10.185Z,60.99
2023-01-17T04:24:15.408Z,61.78
2023-01-17T04:25:20.640Z,61.94
2023-01-17T04:26:24.894Z,61.7
2023-01-17T04:27:29.097Z,62.01
2023-01-17T04:28:33.302Z,61.79
2023-01-17T04:29:37.629Z,61.95
2023-01-17T04:30:41.998Z,61.83
2023-01-17T04:31:46.575Z,62.04
2023-01-17T04:32:50.864Z,61.76
2023-01-17T04:33:55.107Z,61.15
2023-01-17T04:34:59.363Z,61.79
2023-01-17T04:36:03.584Z,61.78
2023-01-17T04:37:07.812Z,61.76
2023-01-17T04:38:12.080Z,60.9
2023-01-17T04:39:16.293Z,61.84
2023-01-17T04:40:20.561Z,61.8
2023-01-17T04:41:24.808Z,62.04
2023-01-17T04:42:29.041Z,62.17
2023-01-17T04:43:33.304Z,61.64
2023-01-17T04:44:37.528Z,62.05
2023-01-17T04:45:41.732Z,61.96
2023-01-17T04:46:45.940Z,62.16
2023-01-17T04:47:50.174Z,61.41
2023-01-17T04:48:54.461Z,61.57
2023-01-17T04:49:58.695Z,62.2
2023-01-17T04:51:02.950Z,62.06
2023-01-17T04:52:07.197Z,62.11
2023-01-17T04:53:11.410Z,62.02
2023-01-17T04:54:15.628Z,61.96
2023-01-17T04:55:19.977Z,62.1
2023-01-17T04:56:24.205Z,62.18
2023-01-17T04:57:28.534Z,62.24
2023-01-17T04:58:32.745Z,62.03
2023-01-17T04:59:36.978Z,61.85
2023-01-17T05:00:41.224Z,61.81
2023-01-17T05:01:45.528Z,60.76
2023-01-17T05:02:50.009Z,60.76
2023-01-17T05:03:54.312Z,61.23
2023-01-17T05:04:59.557Z,58.08
2023-01-17T05:06:03.820Z,57.74
2023-01-17T05:07:08.177Z,57.67
2023-01-17T05:08:12.376Z,57.5
2023-01-17T05:09:16.617Z,56.99
2023-01-17T05:10:20.895Z,56.92
2023-01-17T05:11:25.122Z,56.59
2023-01-17T05:12:29.358Z,56.33
2023-01-17T05:13:33.624Z,56.52
2023-01-17T05:14:37.922Z,56.31
2023-01-17T05:15:42.334Z,55.96
2023-01-17T05:16:46.573Z,55.81
2023-01-17T05:17:50.863Z,55.45
2023-01-17T05:18:55.117Z,55.17
2023-01-17T05:19:59.306Z,55.08
2023-01-17T05:21:03.581Z,54.85
2023-01-17T05:22:07.816Z,54.65
2023-01-17T05:23:12.074Z,54.56
2023-01-17T05:24:16.354Z,54.45
2023-01-17T05:25:20.627Z,54.27
2023-01-17T05:26:24.950Z,54.21
2023-01-17T05:27:29.271Z,54.16
2023-01-17T05:28:33.505Z,54.04
2023-01-17T05:29:37.742Z,54.02
2023-01-17T05:30:42.282Z,53.93
2023-01-17T05:31:46.533Z,53.91
2023-01-17T05:32:50.818Z,53.88
2023-01-17T05:33:55.063Z,53.73
2023-01-17T05:34:59.289Z,53.63
2023-01-17T05:36:03.507Z,53.6
2023-01-17T05:37:07.723Z,53.55
2023-01-17T05:38:11.974Z,53.49
2023-01-17T05:39:16.211Z,53.54
2023-01-17T05:40:21.469Z,53.45
2023-01-17T05:41:25.794Z,53.27
2023-01-17T05:42:30.040Z,53.23
2023-01-17T05:43:34.288Z,53.16
2023-01-17T05:44:38.500Z,53.17
2023-01-17T05:45:42.726Z,53.22
2023-01-17T05:46:46.965Z,53.25
2023-01-17T05:47:51.201Z,53.35
2023-01-17T05:48:55.427Z,53.33
2023-01-17T05:49:59.683Z,53.42
2023-01-17T05:51:03.958Z,53.44
2023-01-17T05:52:08.221Z,53.47
2023-01-17T05:53:12.441Z,53.49
2023-01-17T05:54:16.647Z,53.65
2023-01-17T05:55:20.863Z,53.59
2023-01-17T05:56:25.137Z,53.6
2023-01-17T05:57:29.366Z,53.62
2023-01-17T05:58:33.625Z,53.79
2023-01-17T05:59:39.521Z,53.74
2023-01-17T06:00:43.751Z,53.89
2023-01-17T06:01:47.985Z,53.86
2023-01-17T06:02:52.379Z,53.9
2023-01-17T06:03:56.657Z,53.96
2023-01-17T06:05:04.107Z,54.02
2023-01-17T06:06:08.324Z,54.08
2023-01-17T06:07:12.595Z,54.08
2023-01-17T06:08:16.813Z,54.14
2023-01-17T06:09:21.043Z,54.21
2023-01-17T06:10:25.306Z,54.2
2023-01-17T06:11:29.555Z,54.17
2023-01-17T06:12:33.874Z,54.27
2023-01-17T06:13:38.129Z,54.43
2023-01-17T06:14:42.395Z,54.41
2023-01-17T06:15:46.850Z,54.41
2023-01-17T06:16:51.392Z,54.55
2023-01-17T06:17:55.610Z,54.54
2023-01-17T06:18:59.816Z,54.52
2023-01-17T06:20:04.028Z,54.38
2023-01-17T06:21:08.303Z,54.62
2023-01-17T06:22:12.538Z,54.55
2023-01-17T06:23:16.863Z,54.63
2023-01-17T06:24:21.113Z,54.46
2023-01-17T06:25:25.343Z,54.45
2023-01-17T06:26:29.564Z,54.5
2023-01-17T06:27:33.815Z,54.52
2023-01-17T06:28:38.089Z,54.55
2023-01-17T06:29:42.341Z,54.54
2023-01-17T06:30:46.552Z,54.48
2023-01-17T06:31:50.812Z,54.59
2023-01-17T06:32:55.086Z,54.47
2023-01-17T06:33:59.312Z,54.44
2023-01-17T06:35:03.528Z,54.33
2023-01-17T06:36:07.788Z,54.46
2023-01-17T06:37:12.028Z,54.28
2023-01-17T06:38:16.286Z,54.42
2023-01-17T06:39:20.498Z,54.18
2023-01-17T06:40:24.710Z,53.83
2023-01-17T06:41:28.925Z,53.65
2023-01-17T06:42:33.195Z,53.42
2023-01-17T06:43:37.433Z,53.29
2023-01-17T06:44:41.746Z,53.04
2023-01-17T06:45:45.987Z,52.93
2023-01-17T06:46:50.650Z,52.8
2023-01-17T06:47:54.856Z,52.66
2023-01-17T06:48:59.061Z,52.45
2023-01-17T06:50:03.321Z,52.31
2023-01-17T06:51:07.576Z,52.28
2023-01-17T06:52:11.777Z,52.37
2023-01-17T06:53:15.998Z,52.26
2023-01-17T06:54:20.230Z,52.31
2023-01-17T06:55:24.467Z,52.36
2023-01-17T06:56:28.713Z,52.3
2023-01-17T06:57:32.962Z,52.35
2023-01-17T06:58:37.171Z,52.38
2023-01-17T06:59:41.448Z,52.5
2023-01-17T07:00:45.852Z,52.54
2023-01-17T07:01:50.266Z,52.54
2023-01-17T07:02:54.484Z,52.57
2023-01-17T07:03:58.824Z,52.59
2023-01-17T07:05:03.137Z,52.63
2023-01-17T07:06:07.358Z,52.63
2023-01-17T07:07:11.633Z,52.75
2023-01-17T07:08:16.189Z,52.79
2023-01-17T07:09:20.449Z,52.86
2023-01-17T07:10:24.730Z,52.91
2023-01-17T07:11:28.974Z,52.93
2023-01-17T07:12:33.205Z,52.97
2023-01-17T07:13:38.446Z,52.96
2023-01-17T07:14:42.689Z,53.08
2023-01-17T07:15:47.036Z,53.08
2023-01-17T07:16:51.325Z,53.06
2023-01-17T07:17:55.602Z,53.16
2023-01-17T07:18:59.819Z,53.14
2023-01-17T07:20:04.049Z,53.15
2023-01-17T07:21:08.287Z,53.15
2023-01-17T07:22:12.528Z,53.31
2023-01-17T07:23:16.764Z,53.26
2023-01-17T07:24:21.018Z,53.32
2023-01-17T07:25:27.800Z,53.51
2023-01-17T07:26:32.120Z,53.42
2023-01-17T07:27:36.340Z,53.64
2023-01-17T07:28:40.742Z,53.62
2023-01-17T07:29:45.104Z,53.56
2023-01-17T07:30:49.425Z,53.57
2023-01-17T07:31:53.715Z,53.88
2023-01-17T07:32:57.974Z,53.73
2023-01-17T07:34:02.180Z,53.78
2023-01-17T07:35:06.474Z,53.7
2023-01-17T07:36:10.750Z,53.6
2023-01-17T07:37:17.119Z,53.67
2023-01-17T07:38:21.323Z,53.81
2023-01-17T07:39:25.528Z,53.51
2023-01-17T07:40:29.792Z,53.52
2023-01-17T07:41:34.024Z,53.85
2023-01-17T07:42:38.265Z,53.76
2023-01-17T07:43:42.497Z,53.58
2023-01-17T07:44:46.720Z,53.38
2023-01-17T07:45:51.013Z,53.16
2023-01-17T07:46:55.406Z,52.83
2023-01-17T07:47:59.683Z,52.72
2023-01-17T07:49:03.906Z,52.47
2023-01-17T07:50:08.139Z,52.3
2023-01-17T07:51:12.408Z,52.15
2023-01-17T07:52:19.955Z,52.13
2023-01-17T07:53:24.264Z,51.89
2023-01-17T07:54:28.499Z,51.9
2023-01-17T07:55:32.728Z,51.85
2023-01-17T07:56:36.949Z,51.81
2023-01-17T07:57:41.144Z,51.75
2023-01-17T07:58:45.557Z,51.74
2023-01-17T07:59:49.816Z,51.72
2023-01-17T08:00:54.452Z,51.87
2023-01-17T08:01:59.206Z,51.84
2023-01-17T08:03:03.512Z,51.9
2023-01-17T08:04:07.871Z,51.8
2023-01-17T08:05:12.168Z,51.89
2023-01-17T08:06:16.397Z,51.98
2023-01-17T08:07:20.653Z,52.01
2023-01-17T08:08:24.889Z,52
2023-01-17T08:09:29.152Z,52.14
2023-01-17T08:10:33.397Z,52.22
2023-01-17T08:11:37.665Z,52.23
2023-01-17T08:12:41.887Z,52.27
2023-01-17T08:13:46.253Z,52.36
2023-01-17T08:14:50.517Z,52.42
2023-01-17T08:15:54.739Z,52.54
2023-01-17T08:16:58.975Z,52.62
2023-01-17T08:18:05.515Z,52.48
2023-01-17T08:19:09.771Z,52.6
2023-01-17T08:20:14.047Z,52.63
2023-01-17T08:21:18.306Z,52.59
2023-01-17T08:22:22.574Z,52.69
2023-01-17T08:23:26.793Z,52.73
2023-01-17T08:24:31.017Z,52.73
2023-01-17T08:25:35.253Z,52.98
2023-01-17T08:26:39.545Z,52.9
2023-01-17T08:27:43.785Z,52.94
2023-01-17T08:28:48.014Z,52.89
2023-01-17T08:29:52.218Z,53.09
2023-01-17T08:30:56.428Z,53.13
2023-01-17T08:32:00.696Z,53.07
2023-01-17T08:33:04.906Z,53.2
2023-01-17T08:34:09.151Z,53.42
2023-01-17T08:35:13.341Z,53.34
2023-01-17T08:36:17.617Z,53.22
2023-01-17T08:37:21.906Z,53.34
2023-01-17T08:38:26.149Z,53.33
2023-01-17T08:39:30.367Z,53.33
2023-01-17T08:40:34.624Z,53.33
2023-01-17T08:41:38.842Z,53.2
2023-01-17T08:42:43.079Z,53.28
2023-01-17T08:43:47.302Z,53.23
2023-01-17T08:44:51.526Z,53.27
2023-01-17T08:45:56.279Z,53.2
2023-01-17T08:47:00.555Z,53.29
2023-01-17T08:48:04.828Z,53.2
2023-01-17T08:49:09.216Z,53.29
2023-01-17T08:50:13.552Z,53.34
2023-01-17T08:51:17.782Z,53.32
2023-01-17T08:52:21.984Z,53.32
2023-01-17T08:53:26.229Z,53.3
2023-01-17T08:54:30.489Z,53.15
2023-01-17T08:55:34.737Z,52.92
2023-01-17T08:56:38.958Z,53.25
2023-01-17T08:57:43.193Z,53.17
2023-01-17T08:58:47.409Z,53.08
2023-01-17T08:59:51.646Z,53.17
2023-01-17T09:00:56.184Z,53.13
2023-01-17T09:02:00.964Z,53.16
2023-01-17T09:03:05.242Z,53.1
2023-01-17T09:04:09.656Z,53.38
2023-01-17T09:05:13.907Z,53.02
2023-01-17T09:06:18.170Z,52.79
2023-01-17T09:07:22.459Z,52.64
2023-01-17T09:08:26.689Z,52.27
2023-01-17T09:09:30.937Z,52.03
2023-01-17T09:10:35.169Z,51.83
2023-01-17T09:11:39.462Z,51.67
2023-01-17T09:12:43.677Z,51.7
2023-01-17T09:13:47.921Z,51.49
2023-01-17T09:14:52.241Z,51.43
2023-01-17T09:15:56.439Z,51.36
2023-01-17T09:17:00.626Z,51.3
2023-01-17T09:18:04.860Z,51.31
2023-01-17T09:19:09.140Z,51.27
2023-01-17T09:20:13.460Z,51.32
2023-01-17T09:21:17.750Z,51.32
2023-01-17T09:22:22.090Z,51.35
2023-01-17T09:23:26.351Z,51.36
2023-01-17T09:24:30.594Z,51.53
2023-01-17T09:25:34.859Z,51.53
2023-01-17T09:26:39.148Z,51.53
2023-01-17T09:27:43.391Z,51.61
2023-01-17T09:28:47.694Z,51.64
2023-01-17T09:29:51.915Z,51.81
2023-01-17T09:30:56.300Z,51.83
2023-01-17T09:32:00.523Z,51.91
2023-01-17T09:33:04.786Z,51.91
2023-01-17T09:34:09.061Z,51.83
2023-01-17T09:35:13.403Z,51.96
2023-01-17T09:36:17.613Z,51.9
2023-01-17T09:37:21.881Z,51.89
2023-01-17T09:38:28.638Z,52.08
2023-01-17T09:39:32.949Z,52.02
2023-01-17T09:40:37.177Z,52
2023-01-17T09:41:41.428Z,52.29
2023-01-17T09:42:45.650Z,52.17
2023-01-17T09:43:49.913Z,52.33
2023-01-17T09:44:54.231Z,52.24
2023-01-17T09:45:58.673Z,52.23
2023-01-17T09:47:03.072Z,52.31
2023-01-17T09:48:07.305Z,52.24
2023-01-17T09:49:11.604Z,52.37
2023-01-17T09:50:15.886Z,52.71
2023-01-17T09:51:20.102Z,52.62
2023-01-17T09:52:24.334Z,52.44
2023-01-17T09:53:31.520Z,52.43
2023-01-17T09:54:35.803Z,52.43
2023-01-17T09:55:40.079Z,52.75
2023-01-17T09:56:44.281Z,52.68
2023-01-17T09:57:48.485Z,52.83
2023-01-17T09:58:52.703Z,53.11
2023-01-17T10:00:05.324Z,52.93
2023-01-17T10:01:09.940Z,52.83
2023-01-17T10:02:15.151Z,52.62
2023-01-17T10:03:19.815Z,52.76
2023-01-17T10:04:25.370Z,52.8
2023-01-17T10:05:29.652Z,52.85
2023-01-17T10:06:33.930Z,52.77
2023-01-17T10:07:38.147Z,53.01
2023-01-17T10:08:42.350Z,52.99
2023-01-17T10:09:46.625Z,52.79
2023-01-17T10:10:50.873Z,52.84
2023-01-17T10:11:55.212Z,52.8
2023-01-17T10:12:59.462Z,52.96
2023-01-17T10:14:03.746Z,52.89
2023-01-17T10:15:07.976Z,52.9
2023-01-17T10:16:12.233Z,52.97
2023-01-17T10:17:16.513Z,52.95
2023-01-17T10:18:31.739Z,53
2023-01-17T10:19:38.230Z,52.96
2023-01-17T10:20:42.436Z,52.97
2023-01-17T10:21:46.701Z,52.96
2023-01-17T10:22:50.921Z,52.82
2023-01-17T10:23:55.204Z,52.82
2023-01-17T10:24:59.529Z,52.8
2023-01-17T10:26:03.834Z,52.79
2023-01-17T10:27:08.234Z,52.83
2023-01-17T10:28:12.533Z,52.71
2023-01-17T10:29:16.751Z,53.01
2023-01-17T10:30:21.075Z,52.62
2023-01-17T10:31:25.356Z,52.36
2023-01-17T10:32:29.651Z,52.18
2023-01-17T10:33:33.911Z,52.03
2023-01-17T10:34:38.229Z,51.72
2023-01-17T10:35:42.432Z,51.54
2023-01-17T10:36:46.635Z,51.41
2023-01-17T10:37:50.868Z,51.37
2023-01-17T10:38:55.116Z,51.24
2023-01-17T10:39:59.422Z,51.18
2023-01-17T10:41:03.720Z,51.15
2023-01-17T10:42:08.004Z,51.1
2023-01-17T10:43:12.248Z,51.08
2023-01-17T10:44:16.487Z,51.2
2023-01-17T10:45:20.807Z,51.2
2023-01-17T10:46:25.334Z,51.44
2023-01-17T10:47:29.617Z,51.32
2023-01-17T10:48:33.849Z,51.41
2023-01-17T10:49:38.067Z,50.21
2023-01-17T10:50:42.337Z,50.41
2023-01-17T10:51:46.552Z,48.91
2023-01-17T10:52:50.766Z,48.96
2023-01-17T10:53:55.044Z,46.87
2023-01-17T10:54:59.363Z,48.63
2023-01-17T10:56:03.698Z,47.01
2023-01-17T10:57:07.929Z,47.17
2023-01-17T10:58:12.179Z,45.41
2023-01-17T10:59:16.395Z,46.57
2023-01-17T11:00:20.654Z,46.91
2023-01-17T11:01:25.436Z,45.89
2023-01-17T11:02:30.146Z,46.53
2023-01-17T11:03:34.485Z,46.58
2023-01-17T11:04:38.694Z,45.83
2023-01-17T11:05:43.031Z,45.75
2023-01-17T11:06:59.709Z,44.95
2023-01-17T11:08:04.149Z,45.85
2023-01-17T11:09:08.435Z,46.3
2023-01-17T11:10:12.653Z,47.02
2023-01-17T11:11:16.883Z,47.23
2023-01-17T11:12:21.102Z,47.68
2023-01-17T11:13:25.369Z,47.28
2023-01-17T11:14:29.592Z,47.97
2023-01-17T11:15:33.963Z,48.02
2023-01-17T11:16:38.294Z,47.66
2023-01-17T11:17:42.531Z,47.62
2023-01-17T11:18:46.744Z,48.26
2023-01-17T11:19:50.995Z,48.35
2023-01-17T11:20:55.235Z,48.65
2023-01-17T11:21:59.555Z,48.15
2023-01-17T11:23:03.782Z,48.21
2023-01-17T11:24:08.023Z,48.97
2023-01-17T11:25:12.287Z,48.93
2023-01-17T11:26:16.530Z,48.72
2023-01-17T11:27:20.776Z,48.64
2023-01-17T11:28:25.040Z,48.66
2023-01-17T11:29:29.262Z,49.01
2023-01-17T11:30:33.493Z,48.91
2023-01-17T11:31:37.709Z,49.05
2023-01-17T11:32:41.950Z,48.94
2023-01-17T11:33:46.410Z,49.33
2023-01-17T11:34:50.684Z,49.57
2023-01-17T11:35:55.171Z,49.43
2023-01-17T11:36:59.415Z,49.53
2023-01-17T11:38:03.666Z,49.66
2023-01-17T11:39:07.857Z,49.32
2023-01-17T11:40:14.542Z,49.65
2023-01-17T11:41:18.781Z,49.59
2023-01-17T11:42:23.079Z,49.16
2023-01-17T11:43:27.385Z,49.64
2023-01-17T11:44:31.636Z,49.89
2023-01-17T11:45:35.881Z,49.33
2023-01-17T11:46:40.348Z,49.51
2023-01-17T11:47:44.605Z,49.52
2023-01-17T11:48:48.837Z,50.16
2023-01-17T11:49:53.067Z,49.65
2023-01-17T11:50:57.309Z,49.51
2023-01-17T11:52:01.556Z,49.87
2023-01-17T11:53:05.777Z,49.91
2023-01-17T11:54:10.021Z,50.16
2023-01-17T11:55:14.267Z,50.2
2023-01-17T11:56:18.478Z,49.69
2023-01-17T11:57:22.759Z,49.21
2023-01-17T11:58:27.025Z,49.18
2023-01-17T11:59:31.230Z,49
2023-01-17T12:00:35.494Z,48.86
2023-01-17T12:01:39.757Z,48.69
2023-01-17T12:02:44.036Z,48.59
2023-01-17T12:03:48.418Z,48.6
2023-01-17T12:04:52.755Z,48.46
2023-01-17T12:05:57.072Z,48.5
2023-01-17T12:07:01.343Z,48.55
2023-01-17T12:08:05.558Z,48.46
2023-01-17T12:09:09.998Z,48.62
2023-01-17T12:10:14.317Z,48.54
2023-01-17T12:11:18.622Z,48.72
2023-01-17T12:12:22.840Z,48.86
2023-01-17T12:13:27.087Z,48.75
2023-01-17T12:14:31.344Z,48.71
2023-01-17T12:15:35.611Z,48.83
2023-01-17T12:16:39.908Z,48.88
2023-01-17T12:17:44.103Z,48.99
2023-01-17T12:18:48.357Z,49.06
2023-01-17T12:19:52.589Z,48.99
2023-01-17T12:20:56.804Z,49.18
2023-01-17T12:22:01.084Z,49.37
2023-01-17T12:23:05.315Z,49.37
2023-01-17T12:24:09.793Z,49.2
2023-01-17T12:25:14.171Z,49.39
2023-01-17T12:26:18.416Z,49.56
2023-01-17T12:27:22.668Z,49.72
2023-01-17T12:28:26.926Z,49.79
2023-01-17T12:29:31.188Z,49.73
2023-01-17T12:30:35.485Z,49.55
2023-01-17T12:31:39.921Z,49.61
2023-01-17T12:32:44.151Z,49.67
2023-01-17T12:33:48.499Z,49.72
2023-01-17T12:34:53.101Z,49.97
2023-01-17T12:35:57.358Z,49.8
2023-01-17T12:37:01.627Z,50.11
2023-01-17T12:38:07.303Z,50.17
2023-01-17T12:39:11.645Z,50.36
2023-01-17T12:40:15.954Z,50.33
2023-01-17T12:41:20.225Z,50.37
2023-01-17T12:42:24.444Z,50.29
2023-01-17T12:43:28.661Z,50.56
2023-01-17T12:44:32.861Z,50.79
2023-01-17T12:45:37.175Z,50.83
2023-01-17T12:46:41.641Z,50.64
2023-01-17T12:47:45.920Z,50.57
2023-01-17T12:48:50.155Z,50.47
2023-01-17T12:49:54.416Z,50.85
2023-01-17T12:51:01.652Z,50.63
2023-01-17T12:52:05.902Z,50.64
2023-01-17T12:53:10.121Z,50.74
2023-01-17T12:54:14.408Z,50.65
2023-01-17T12:55:18.710Z,50.53
2023-01-17T12:56:22.956Z,50.51
2023-01-17T12:57:27.167Z,50.7
2023-01-17T12:58:31.411Z,50.89
2023-01-17T12:59:35.638Z,50.76
2023-01-17T13:00:40.172Z,50.64
2023-01-17T13:01:44.879Z,50.46
2023-01-17T13:02:49.189Z,50.38
2023-01-17T13:03:54.591Z,50.59
2023-01-17T13:05:01.237Z,50.55
2023-01-17T13:06:05.512Z,50.63
2023-01-17T13:07:09.727Z,50.59
2023-01-17T13:08:16.361Z,50.64
2023-01-17T13:09:21.463Z,50.58
2023-01-17T13:10:25.691Z,50.55
2023-01-17T13:11:29.957Z,50.59
2023-01-17T13:12:34.189Z,50.59
2023-01-17T13:13:38.394Z,49.64
2023-01-17T13:14:42.672Z,49.6
2023-01-17T13:15:46.878Z,49.58
2023-01-17T13:16:51.150Z,49.73
2023-01-17T13:17:55.457Z,50.01
2023-01-17T13:18:59.749Z,50.22
2023-01-17T13:20:04.016Z,50.46
2023-01-17T13:21:08.414Z,50.7
2023-01-17T13:22:12.673Z,50.77
2023-01-17T13:23:16.883Z,50.86
2023-01-17T13:24:24.221Z,50.13
2023-01-17T13:25:28.459Z,49.88
2023-01-17T13:26:32.677Z,49.8
2023-01-17T13:27:36.938Z,49.61
2023-01-17T13:28:41.222Z,49.42
2023-01-17T13:29:45.451Z,49.42
2023-01-17T13:30:49.699Z,49.34
2023-01-17T13:31:54.114Z,49.25
2023-01-17T13:32:58.380Z,49.11
2023-01-17T13:34:02.663Z,49.01
2023-01-17T13:35:09.304Z,49
2023-01-17T13:36:13.504Z,49.02
2023-01-17T13:37:17.737Z,49.12
2023-01-17T13:38:21.986Z,49.21
2023-01-17T13:39:26.269Z,49.18
2023-01-17T13:40:31.647Z,49.18
2023-01-17T13:41:35.959Z,49.26
2023-01-17T13:42:40.211Z,49.29
2023-01-17T13:43:44.494Z,49.43
2023-01-17T13:44:48.705Z,49.3
2023-01-17T13:45:53.205Z,49.4
2023-01-17T13:46:57.533Z,49.4
2023-01-17T13:48:01.788Z,49.63
2023-01-17T13:49:06.042Z,49.72
2023-01-17T13:50:10.475Z,49.61
2023-01-17T13:51:14.858Z,49.7
2023-01-17T13:52:19.145Z,49.85